sensor_id;sensor_type;location;lat;lon;timestamp;P1;durP1;ratioP1;P2;durP2;ratioP2
10985;SDS011;5546;48.714;8.738;2024-03-08T00:01:06;41.17;;;23.77;;
10985;SDS011;5546;48.714;8.738;2024-03-08T00:03:32;39.33;;;24.57;;
10985;SDS011;5546;48.714;8.738;2024-03-08T00:05:57;42.13;;;25.37;;
10985;SDS011;5546;48.714;8.738;2024-03-08T00:08:23;39.90;;;24.73;;
10985;SDS011;5546;48.714;8.738;2024-03-08T00:10:49;41.77;;;25.50;;
10985;SDS011;5546;48.714;8.738;2024-03-08T00:13:15;43.90;;;25.33;;
10985;SDS011;5546;48.714;8.738;2024-03-08T00:15:41;40.70;;;24.00;;
10985;SDS011;5546;48.714;8.738;2024-03-08T00:18:06;41.03;;;25.47;;
10985;SDS011;5546;48.714;8.738;2024-03-08T00:20:32;39.83;;;24.93;;
10985;SDS011;5546;48.714;8.738;2024-03-08T00:22:58;46.33;;;26.97;;
10985;SDS011;5546;48.714;8.738;2024-03-08T00:25:24;40.40;;;23.77;;
10985;SDS011;5546;48.714;8.738;2024-03-08T00:27:49;46.17;;;26.20;;
10985;SDS011;5546;48.714;8.738;2024-03-08T00:30:15;44.87;;;25.73;;
10985;SDS011;5546;48.714;8.738;2024-03-08T00:32:40;40.63;;;24.50;;
10985;SDS011;5546;48.714;8.738;2024-03-08T00:35:06;47.20;;;26.67;;
10985;SDS011;5546;48.714;8.738;2024-03-08T00:37:32;47.20;;;26.80;;
10985;SDS011;5546;48.714;8.738;2024-03-08T00:39:59;41.20;;;25.10;;
10985;SDS011;5546;48.714;8.738;2024-03-08T00:42:24;42.13;;;25.60;;
10985;SDS011;5546;48.714;8.738;2024-03-08T00:44:50;46.53;;;25.43;;
10985;SDS011;5546;48.714;8.738;2024-03-08T00:47:16;47.67;;;26.33;;
10985;SDS011;5546;48.714;8.738;2024-03-08T00:49:43;42.17;;;26.20;;
10985;SDS011;5546;48.714;8.738;2024-03-08T00:52:09;46.57;;;26.20;;
10985;SDS011;5546;48.714;8.738;2024-03-08T00:54:35;41.43;;;24.83;;
10985;SDS011;5546;48.714;8.738;2024-03-08T00:57:01;40.87;;;25.53;;
10985;SDS011;5546;48.714;8.738;2024-03-08T00:59:28;42.53;;;25.10;;
10985;SDS011;5546;48.714;8.738;2024-03-08T01:01:53;43.63;;;25.57;;
10985;SDS011;5546;48.714;8.738;2024-03-08T01:04:19;44.50;;;25.17;;
10985;SDS011;5546;48.714;8.738;2024-03-08T01:06:46;46.87;;;26.40;;
10985;SDS011;5546;48.714;8.738;2024-03-08T01:09:12;42.87;;;24.70;;
10985;SDS011;5546;48.714;8.738;2024-03-08T01:11:38;49.40;;;26.97;;
10985;SDS011;5546;48.714;8.738;2024-03-08T01:14:04;47.50;;;26.87;;
10985;SDS011;5546;48.714;8.738;2024-03-08T01:16:33;47.83;;;25.30;;
10985;SDS011;5546;48.714;8.738;2024-03-08T01:18:58;46.57;;;26.50;;
10985;SDS011;5546;48.714;8.738;2024-03-08T01:21:24;47.37;;;25.90;;
10985;SDS011;5546;48.714;8.738;2024-03-08T01:23:50;45.10;;;26.67;;
10985;SDS011;5546;48.714;8.738;2024-03-08T01:26:15;45.33;;;26.63;;
10985;SDS011;5546;48.714;8.738;2024-03-08T01:28:41;44.70;;;25.70;;
10985;SDS011;5546;48.714;8.738;2024-03-08T01:31:06;43.37;;;24.30;;
10985;SDS011;5546;48.714;8.738;2024-03-08T01:33:32;42.37;;;24.90;;
10985;SDS011;5546;48.714;8.738;2024-03-08T01:35:58;42.13;;;24.83;;
10985;SDS011;5546;48.714;8.738;2024-03-08T01:38:23;43.57;;;24.53;;
10985;SDS011;5546;48.714;8.738;2024-03-08T01:40:49;41.03;;;24.63;;
10985;SDS011;5546;48.714;8.738;2024-03-08T01:43:24;47.53;;;25.33;;
10985;SDS011;5546;48.714;8.738;2024-03-08T01:45:53;36.13;;;22.87;;
10985;SDS011;5546;48.714;8.738;2024-03-08T01:48:19;43.33;;;23.70;;
10985;SDS011;5546;48.714;8.738;2024-03-08T01:50:48;42.83;;;24.73;;
10985;SDS011;5546;48.714;8.738;2024-03-08T01:53:19;38.57;;;23.23;;
10985;SDS011;5546;48.714;8.738;2024-03-08T01:55:46;38.97;;;24.23;;
10985;SDS011;5546;48.714;8.738;2024-03-08T01:58:13;38.50;;;22.93;;
10985;SDS011;5546;48.714;8.738;2024-03-08T02:00:44;33.97;;;21.33;;
10985;SDS011;5546;48.714;8.738;2024-03-08T02:03:11;36.00;;;22.47;;
10985;SDS011;5546;48.714;8.738;2024-03-08T02:05:40;41.70;;;23.63;;
10985;SDS011;5546;48.714;8.738;2024-03-08T02:08:06;40.53;;;24.00;;
10985;SDS011;5546;48.714;8.738;2024-03-08T02:10:35;39.40;;;22.77;;
10985;SDS011;5546;48.714;8.738;2024-03-08T02:13:01;36.67;;;22.33;;
10985;SDS011;5546;48.714;8.738;2024-03-08T02:15:49;39.10;;;23.43;;
10985;SDS011;5546;48.714;8.738;2024-03-08T02:18:20;36.43;;;21.67;;
10985;SDS011;5546;48.714;8.738;2024-03-08T02:20:47;35.37;;;21.40;;
10985;SDS011;5546;48.714;8.738;2024-03-08T02:23:23;35.20;;;21.63;;
10985;SDS011;5546;48.714;8.738;2024-03-08T02:25:52;34.70;;;22.00;;
10985;SDS011;5546;48.714;8.738;2024-03-08T02:28:19;46.73;;;23.17;;
10985;SDS011;5546;48.714;8.738;2024-03-08T02:30:46;70.83;;;23.77;;
10985;SDS011;5546;48.714;8.738;2024-03-08T02:33:13;56.93;;;24.17;;
10985;SDS011;5546;48.714;8.738;2024-03-08T02:35:42;49.47;;;22.17;;
10985;SDS011;5546;48.714;8.738;2024-03-08T02:38:12;44.47;;;21.67;;
10985;SDS011;5546;48.714;8.738;2024-03-08T02:40:49;45.73;;;22.63;;
10985;SDS011;5546;48.714;8.738;2024-03-08T02:43:15;63.63;;;21.90;;
10985;SDS011;5546;48.714;8.738;2024-03-08T02:45:43;55.37;;;21.30;;
10985;SDS011;5546;48.714;8.738;2024-03-08T02:48:09;34.90;;;20.30;;
10985;SDS011;5546;48.714;8.738;2024-03-08T02:50:35;80.13;;;21.43;;
10985;SDS011;5546;48.714;8.738;2024-03-08T02:53:01;41.53;;;20.77;;
10985;SDS011;5546;48.714;8.738;2024-03-08T02:55:27;113.67;;;22.00;;
10985;SDS011;5546;48.714;8.738;2024-03-08T02:57:53;87.57;;;23.03;;
10985;SDS011;5546;48.714;8.738;2024-03-08T03:00:21;144.47;;;24.93;;
10985;SDS011;5546;48.714;8.738;2024-03-08T03:02:48;54.70;;;23.23;;
10985;SDS011;5546;48.714;8.738;2024-03-08T03:05:18;71.10;;;23.43;;
10985;SDS011;5546;48.714;8.738;2024-03-08T03:07:47;46.00;;;22.20;;
10985;SDS011;5546;48.714;8.738;2024-03-08T03:10:13;130.33;;;24.33;;
10985;SDS011;5546;48.714;8.738;2024-03-08T03:12:41;111.17;;;22.30;;
10985;SDS011;5546;48.714;8.738;2024-03-08T03:15:08;98.03;;;21.93;;
10985;SDS011;5546;48.714;8.738;2024-03-08T03:17:33;64.03;;;19.93;;
10985;SDS011;5546;48.714;8.738;2024-03-08T03:19:59;75.83;;;21.37;;
10985;SDS011;5546;48.714;8.738;2024-03-08T03:22:34;160.13;;;23.43;;
10985;SDS011;5546;48.714;8.738;2024-03-08T03:25:02;167.97;;;23.30;;
10985;SDS011;5546;48.714;8.738;2024-03-08T03:27:29;177.57;;;25.00;;
10985;SDS011;5546;48.714;8.738;2024-03-08T03:29:55;169.07;;;24.90;;
10985;SDS011;5546;48.714;8.738;2024-03-08T03:32:22;197.60;;;23.90;;
10985;SDS011;5546;48.714;8.738;2024-03-08T03:34:48;63.10;;;20.10;;
10985;SDS011;5546;48.714;8.738;2024-03-08T03:37:17;63.47;;;19.60;;
10985;SDS011;5546;48.714;8.738;2024-03-08T03:39:44;90.33;;;20.00;;
10985;SDS011;5546;48.714;8.738;2024-03-08T03:42:18;35.80;;;19.53;;
10985;SDS011;5546;48.714;8.738;2024-03-08T03:44:48;66.27;;;20.80;;
10985;SDS011;5546;48.714;8.738;2024-03-08T03:47:14;106.17;;;20.90;;
10985;SDS011;5546;48.714;8.738;2024-03-08T03:49:40;108.37;;;21.77;;
10985;SDS011;5546;48.714;8.738;2024-03-08T03:52:06;99.60;;;21.43;;
10985;SDS011;5546;48.714;8.738;2024-03-08T03:54:32;123.67;;;22.33;;
10985;SDS011;5546;48.714;8.738;2024-03-08T03:56:58;76.53;;;20.33;;
10985;SDS011;5546;48.714;8.738;2024-03-08T03:59:25;57.00;;;20.97;;
10985;SDS011;5546;48.714;8.738;2024-03-08T04:01:52;39.63;;;19.90;;
10985;SDS011;5546;48.714;8.738;2024-03-08T04:04:20;111.90;;;21.53;;
10985;SDS011;5546;48.714;8.738;2024-03-08T04:06:46;38.70;;;18.20;;
10985;SDS011;5546;48.714;8.738;2024-03-08T04:09:12;109.97;;;22.33;;
10985;SDS011;5546;48.714;8.738;2024-03-08T04:11:38;84.23;;;20.53;;
10985;SDS011;5546;48.714;8.738;2024-03-08T04:14:04;59.53;;;20.57;;
10985;SDS011;5546;48.714;8.738;2024-03-08T04:16:30;162.20;;;22.73;;
10985;SDS011;5546;48.714;8.738;2024-03-08T04:18:56;45.17;;;19.60;;
10985;SDS011;5546;48.714;8.738;2024-03-08T04:21:22;42.70;;;18.40;;
10985;SDS011;5546;48.714;8.738;2024-03-08T04:23:48;39.47;;;17.90;;
10985;SDS011;5546;48.714;8.738;2024-03-08T04:26:13;95.07;;;19.90;;
10985;SDS011;5546;48.714;8.738;2024-03-08T04:28:39;59.10;;;18.13;;
10985;SDS011;5546;48.714;8.738;2024-03-08T04:31:04;31.53;;;18.30;;
10985;SDS011;5546;48.714;8.738;2024-03-08T04:33:31;40.87;;;18.67;;
10985;SDS011;5546;48.714;8.738;2024-03-08T04:35:57;51.40;;;18.87;;
10985;SDS011;5546;48.714;8.738;2024-03-08T04:38:23;36.87;;;17.97;;
10985;SDS011;5546;48.714;8.738;2024-03-08T04:40:49;51.63;;;19.10;;
10985;SDS011;5546;48.714;8.738;2024-03-08T04:43:15;38.00;;;17.93;;
10985;SDS011;5546;48.714;8.738;2024-03-08T04:45:43;49.47;;;19.50;;
10985;SDS011;5546;48.714;8.738;2024-03-08T04:48:09;47.67;;;17.80;;
10985;SDS011;5546;48.714;8.738;2024-03-08T04:50:34;74.53;;;20.33;;
10985;SDS011;5546;48.714;8.738;2024-03-08T04:53:00;36.73;;;17.07;;
10985;SDS011;5546;48.714;8.738;2024-03-08T04:55:26;43.30;;;18.67;;
10985;SDS011;5546;48.714;8.738;2024-03-08T04:57:51;61.67;;;20.70;;
10985;SDS011;5546;48.714;8.738;2024-03-08T05:00:18;48.03;;;19.23;;
10985;SDS011;5546;48.714;8.738;2024-03-08T05:02:44;94.50;;;21.33;;
10985;SDS011;5546;48.714;8.738;2024-03-08T05:05:12;52.43;;;19.03;;
10985;SDS011;5546;48.714;8.738;2024-03-08T05:07:39;76.10;;;19.77;;
10985;SDS011;5546;48.714;8.738;2024-03-08T05:10:10;48.00;;;19.63;;
10985;SDS011;5546;48.714;8.738;2024-03-08T05:12:36;111.13;;;23.33;;
10985;SDS011;5546;48.714;8.738;2024-03-08T05:15:03;58.37;;;20.00;;
10985;SDS011;5546;48.714;8.738;2024-03-08T05:17:30;62.30;;;19.73;;
10985;SDS011;5546;48.714;8.738;2024-03-08T05:19:55;61.17;;;18.93;;
10985;SDS011;5546;48.714;8.738;2024-03-08T05:22:21;81.90;;;20.17;;
10985;SDS011;5546;48.714;8.738;2024-03-08T05:24:47;34.07;;;19.27;;
10985;SDS011;5546;48.714;8.738;2024-03-08T05:27:13;50.80;;;18.77;;
10985;SDS011;5546;48.714;8.738;2024-03-08T05:29:38;44.97;;;17.53;;
10985;SDS011;5546;48.714;8.738;2024-03-08T05:32:04;32.30;;;18.10;;
10985;SDS011;5546;48.714;8.738;2024-03-08T05:34:30;39.90;;;18.23;;
10985;SDS011;5546;48.714;8.738;2024-03-08T05:36:55;38.20;;;18.43;;
10985;SDS011;5546;48.714;8.738;2024-03-08T05:39:23;39.57;;;19.77;;
10985;SDS011;5546;48.714;8.738;2024-03-08T05:41:49;52.23;;;20.37;;
10985;SDS011;5546;48.714;8.738;2024-03-08T05:44:15;35.90;;;19.37;;
10985;SDS011;5546;48.714;8.738;2024-03-08T05:46:44;44.10;;;18.80;;
10985;SDS011;5546;48.714;8.738;2024-03-08T05:49:11;52.60;;;19.40;;
10985;SDS011;5546;48.714;8.738;2024-03-08T05:51:38;102.77;;;19.47;;
10985;SDS011;5546;48.714;8.738;2024-03-08T05:54:05;138.70;;;21.60;;
10985;SDS011;5546;48.714;8.738;2024-03-08T05:56:37;41.77;;;21.47;;
10985;SDS011;5546;48.714;8.738;2024-03-08T05:59:05;32.90;;;19.10;;
10985;SDS011;5546;48.714;8.738;2024-03-08T06:01:31;31.27;;;19.67;;
10985;SDS011;5546;48.714;8.738;2024-03-08T06:03:57;35.07;;;19.47;;
10985;SDS011;5546;48.714;8.738;2024-03-08T06:06:23;32.70;;;19.40;;
10985;SDS011;5546;48.714;8.738;2024-03-08T06:08:49;32.77;;;19.40;;
10985;SDS011;5546;48.714;8.738;2024-03-08T06:11:16;32.20;;;20.67;;
10985;SDS011;5546;48.714;8.738;2024-03-08T06:13:43;37.20;;;19.13;;
10985;SDS011;5546;48.714;8.738;2024-03-08T06:16:08;38.83;;;22.63;;
10985;SDS011;5546;48.714;8.738;2024-03-08T06:18:34;35.00;;;19.77;;
10985;SDS011;5546;48.714;8.738;2024-03-08T06:21:04;33.10;;;19.67;;
10985;SDS011;5546;48.714;8.738;2024-03-08T06:23:48;35.53;;;20.77;;
10985;SDS011;5546;48.714;8.738;2024-03-08T06:26:13;36.33;;;19.67;;
10985;SDS011;5546;48.714;8.738;2024-03-08T06:28:39;40.40;;;19.90;;
10985;SDS011;5546;48.714;8.738;2024-03-08T06:31:04;33.43;;;19.53;;
10985;SDS011;5546;48.714;8.738;2024-03-08T06:33:32;28.93;;;18.43;;
10985;SDS011;5546;48.714;8.738;2024-03-08T06:35:57;32.93;;;21.10;;
10985;SDS011;5546;48.714;8.738;2024-03-08T06:38:26;34.03;;;18.97;;
10985;SDS011;5546;48.714;8.738;2024-03-08T06:40:52;32.00;;;19.47;;
10985;SDS011;5546;48.714;8.738;2024-03-08T06:43:18;33.37;;;19.43;;
10985;SDS011;5546;48.714;8.738;2024-03-08T06:45:44;36.73;;;19.47;;
10985;SDS011;5546;48.714;8.738;2024-03-08T06:48:17;31.17;;;19.53;;
10985;SDS011;5546;48.714;8.738;2024-03-08T06:50:43;26.70;;;18.13;;
10985;SDS011;5546;48.714;8.738;2024-03-08T06:53:13;27.67;;;17.97;;
10985;SDS011;5546;48.714;8.738;2024-03-08T06:55:39;27.90;;;18.40;;
10985;SDS011;5546;48.714;8.738;2024-03-08T06:58:05;26.77;;;18.30;;
10985;SDS011;5546;48.714;8.738;2024-03-08T07:00:31;27.27;;;18.40;;
10985;SDS011;5546;48.714;8.738;2024-03-08T07:02:57;36.03;;;18.33;;
10985;SDS011;5546;48.714;8.738;2024-03-08T07:05:26;32.37;;;18.13;;
10985;SDS011;5546;48.714;8.738;2024-03-08T07:07:52;24.90;;;17.23;;
10985;SDS011;5546;48.714;8.738;2024-03-08T07:10:17;28.57;;;19.47;;
10985;SDS011;5546;48.714;8.738;2024-03-08T07:12:44;29.20;;;18.33;;
10985;SDS011;5546;48.714;8.738;2024-03-08T07:15:11;29.30;;;18.20;;
10985;SDS011;5546;48.714;8.738;2024-03-08T07:17:41;27.80;;;17.60;;
10985;SDS011;5546;48.714;8.738;2024-03-08T07:20:09;30.27;;;18.50;;
10985;SDS011;5546;48.714;8.738;2024-03-08T07:22:37;25.23;;;17.30;;
10985;SDS011;5546;48.714;8.738;2024-03-08T07:25:05;26.43;;;17.77;;
10985;SDS011;5546;48.714;8.738;2024-03-08T07:27:52;28.00;;;17.33;;
10985;SDS011;5546;48.714;8.738;2024-03-08T07:30:18;24.17;;;17.00;;
10985;SDS011;5546;48.714;8.738;2024-03-08T07:33:09;26.83;;;18.23;;
10985;SDS011;5546;48.714;8.738;2024-03-08T07:35:38;26.93;;;17.77;;
10985;SDS011;5546;48.714;8.738;2024-03-08T07:38:05;29.23;;;18.63;;
10985;SDS011;5546;48.714;8.738;2024-03-08T07:40:32;27.37;;;17.87;;
10985;SDS011;5546;48.714;8.738;2024-03-08T07:43:00;26.17;;;17.43;;
10985;SDS011;5546;48.714;8.738;2024-03-08T07:45:25;27.67;;;17.53;;
10985;SDS011;5546;48.714;8.738;2024-03-08T07:47:51;28.83;;;17.97;;
10985;SDS011;5546;48.714;8.738;2024-03-08T07:50:18;27.20;;;17.23;;
10985;SDS011;5546;48.714;8.738;2024-03-08T07:52:44;27.50;;;18.60;;
10985;SDS011;5546;48.714;8.738;2024-03-08T07:55:10;26.57;;;18.30;;
10985;SDS011;5546;48.714;8.738;2024-03-08T07:57:35;29.87;;;18.17;;
10985;SDS011;5546;48.714;8.738;2024-03-08T08:00:07;31.03;;;18.93;;
10985;SDS011;5546;48.714;8.738;2024-03-08T08:02:33;25.87;;;17.80;;
10985;SDS011;5546;48.714;8.738;2024-03-08T08:05:00;29.30;;;18.50;;
10985;SDS011;5546;48.714;8.738;2024-03-08T08:07:26;26.37;;;17.60;;
10985;SDS011;5546;48.714;8.738;2024-03-08T08:09:52;26.67;;;17.70;;
10985;SDS011;5546;48.714;8.738;2024-03-08T08:12:18;29.37;;;20.07;;
10985;SDS011;5546;48.714;8.738;2024-03-08T08:14:44;31.23;;;20.20;;
10985;SDS011;5546;48.714;8.738;2024-03-08T08:17:09;30.77;;;20.10;;
10985;SDS011;5546;48.714;8.738;2024-03-08T08:19:35;28.47;;;18.33;;
10985;SDS011;5546;48.714;8.738;2024-03-08T08:22:01;26.40;;;18.10;;
10985;SDS011;5546;48.714;8.738;2024-03-08T08:24:27;28.70;;;18.37;;
10985;SDS011;5546;48.714;8.738;2024-03-08T08:26:53;28.33;;;20.43;;
10985;SDS011;5546;48.714;8.738;2024-03-08T08:29:18;25.50;;;18.23;;
10985;SDS011;5546;48.714;8.738;2024-03-08T08:31:45;26.50;;;18.37;;
10985;SDS011;5546;48.714;8.738;2024-03-08T08:34:11;28.17;;;17.77;;
10985;SDS011;5546;48.714;8.738;2024-03-08T08:36:38;26.17;;;17.23;;
10985;SDS011;5546;48.714;8.738;2024-03-08T08:39:05;29.17;;;18.50;;
10985;SDS011;5546;48.714;8.738;2024-03-08T08:41:37;29.40;;;17.87;;
10985;SDS011;5546;48.714;8.738;2024-03-08T08:44:02;26.13;;;18.10;;
10985;SDS011;5546;48.714;8.738;2024-03-08T08:46:28;26.13;;;18.17;;
10985;SDS011;5546;48.714;8.738;2024-03-08T08:48:54;30.33;;;18.53;;
10985;SDS011;5546;48.714;8.738;2024-03-08T08:51:19;33.53;;;19.23;;
10985;SDS011;5546;48.714;8.738;2024-03-08T08:53:45;27.57;;;17.93;;
10985;SDS011;5546;48.714;8.738;2024-03-08T08:56:13;28.97;;;19.13;;
10985;SDS011;5546;48.714;8.738;2024-03-08T08:58:39;27.17;;;17.43;;
10985;SDS011;5546;48.714;8.738;2024-03-08T09:01:08;29.53;;;19.00;;
10985;SDS011;5546;48.714;8.738;2024-03-08T09:03:35;24.97;;;17.50;;
10985;SDS011;5546;48.714;8.738;2024-03-08T09:06:02;30.50;;;18.90;;
10985;SDS011;5546;48.714;8.738;2024-03-08T09:08:30;28.07;;;18.03;;
10985;SDS011;5546;48.714;8.738;2024-03-08T09:10:56;27.00;;;17.90;;
10985;SDS011;5546;48.714;8.738;2024-03-08T09:13:21;26.73;;;17.20;;
10985;SDS011;5546;48.714;8.738;2024-03-08T09:15:48;27.17;;;17.20;;
10985;SDS011;5546;48.714;8.738;2024-03-08T09:18:13;25.80;;;16.87;;
10985;SDS011;5546;48.714;8.738;2024-03-08T09:20:39;24.57;;;16.10;;
10985;SDS011;5546;48.714;8.738;2024-03-08T09:23:06;24.47;;;16.63;;
10985;SDS011;5546;48.714;8.738;2024-03-08T09:25:33;26.30;;;16.80;;
10985;SDS011;5546;48.714;8.738;2024-03-08T09:27:58;24.70;;;16.73;;
10985;SDS011;5546;48.714;8.738;2024-03-08T09:30:24;26.37;;;15.90;;
10985;SDS011;5546;48.714;8.738;2024-03-08T09:32:50;23.93;;;16.03;;
10985;SDS011;5546;48.714;8.738;2024-03-08T09:35:16;24.93;;;15.90;;
10985;SDS011;5546;48.714;8.738;2024-03-08T09:37:42;23.67;;;16.07;;
10985;SDS011;5546;48.714;8.738;2024-03-08T09:40:07;24.77;;;16.67;;
10985;SDS011;5546;48.714;8.738;2024-03-08T09:42:40;24.80;;;16.23;;
10985;SDS011;5546;48.714;8.738;2024-03-08T09:45:10;21.73;;;15.07;;
10985;SDS011;5546;48.714;8.738;2024-03-08T09:47:36;22.73;;;16.13;;
10985;SDS011;5546;48.714;8.738;2024-03-08T09:50:06;27.27;;;17.73;;
10985;SDS011;5546;48.714;8.738;2024-03-08T09:52:34;25.57;;;15.40;;
10985;SDS011;5546;48.714;8.738;2024-03-08T09:55:12;23.60;;;16.30;;
10985;SDS011;5546;48.714;8.738;2024-03-08T09:57:37;23.37;;;15.97;;
10985;SDS011;5546;48.714;8.738;2024-03-08T10:00:04;25.27;;;16.47;;
10985;SDS011;5546;48.714;8.738;2024-03-08T10:02:44;24.00;;;15.43;;
10985;SDS011;5546;48.714;8.738;2024-03-08T10:05:10;22.53;;;14.97;;
10985;SDS011;5546;48.714;8.738;2024-03-08T10:07:37;23.57;;;15.60;;
10985;SDS011;5546;48.714;8.738;2024-03-08T10:10:03;22.60;;;15.57;;
10985;SDS011;5546;48.714;8.738;2024-03-08T10:12:29;21.97;;;15.30;;
10985;SDS011;5546;48.714;8.738;2024-03-08T10:14:55;24.43;;;15.53;;
10985;SDS011;5546;48.714;8.738;2024-03-08T10:17:21;22.30;;;15.90;;
10985;SDS011;5546;48.714;8.738;2024-03-08T10:19:50;20.70;;;15.13;;
10985;SDS011;5546;48.714;8.738;2024-03-08T10:22:19;27.97;;;17.77;;
10985;SDS011;5546;48.714;8.738;2024-03-08T10:24:48;21.27;;;14.77;;
10985;SDS011;5546;48.714;8.738;2024-03-08T10:27:13;17.83;;;14.57;;
10985;SDS011;5546;48.714;8.738;2024-03-08T10:29:42;21.27;;;14.67;;
10985;SDS011;5546;48.714;8.738;2024-03-08T10:32:09;21.50;;;13.73;;
10985;SDS011;5546;48.714;8.738;2024-03-08T10:34:35;22.17;;;14.40;;
10985;SDS011;5546;48.714;8.738;2024-03-08T10:37:04;21.97;;;13.83;;
10985;SDS011;5546;48.714;8.738;2024-03-08T10:39:36;21.90;;;14.47;;
10985;SDS011;5546;48.714;8.738;2024-03-08T10:42:03;22.83;;;14.93;;
10985;SDS011;5546;48.714;8.738;2024-03-08T10:49:43;21.13;;;14.90;;
10985;SDS011;5546;48.714;8.738;2024-03-08T10:52:14;21.27;;;14.43;;
10985;SDS011;5546;48.714;8.738;2024-03-08T10:54:42;26.07;;;16.37;;
10985;SDS011;5546;48.714;8.738;2024-03-08T10:57:09;21.57;;;15.20;;
10985;SDS011;5546;48.714;8.738;2024-03-08T10:59:40;19.20;;;13.60;;
10985;SDS011;5546;48.714;8.738;2024-03-08T11:02:08;21.23;;;14.90;;
10985;SDS011;5546;48.714;8.738;2024-03-08T11:04:37;21.83;;;14.50;;
10985;SDS011;5546;48.714;8.738;2024-03-08T11:07:03;19.57;;;14.57;;
10985;SDS011;5546;48.714;8.738;2024-03-08T11:09:32;20.30;;;14.37;;
10985;SDS011;5546;48.714;8.738;2024-03-08T11:14:50;21.57;;;14.03;;
10985;SDS011;5546;48.714;8.738;2024-03-08T11:17:59;19.73;;;15.07;;
10985;SDS011;5546;48.714;8.738;2024-03-08T11:20:10;19.53;;;13.77;;
10985;SDS011;5546;48.714;8.738;2024-03-08T11:22:51;16.97;;;12.70;;
10985;SDS011;5546;48.714;8.738;2024-03-08T11:25:37;19.47;;;13.67;;
10985;SDS011;5546;48.714;8.738;2024-03-08T11:28:18;19.33;;;13.63;;
10985;SDS011;5546;48.714;8.738;2024-03-08T11:33:29;17.77;;;13.03;;
10985;SDS011;5546;48.714;8.738;2024-03-08T11:36:02;19.57;;;13.63;;
10985;SDS011;5546;48.714;8.738;2024-03-08T11:38:47;19.23;;;13.43;;
10985;SDS011;5546;48.714;8.738;2024-03-08T11:41:17;16.13;;;12.63;;
10985;SDS011;5546;48.714;8.738;2024-03-08T11:43:45;17.83;;;13.23;;
10985;SDS011;5546;48.714;8.738;2024-03-08T11:46:12;17.63;;;13.00;;
10985;SDS011;5546;48.714;8.738;2024-03-08T11:48:42;15.80;;;11.70;;
10985;SDS011;5546;48.714;8.738;2024-03-08T11:51:09;19.13;;;13.40;;
10985;SDS011;5546;48.714;8.738;2024-03-08T11:53:37;20.97;;;12.63;;
10985;SDS011;5546;48.714;8.738;2024-03-08T11:56:13;18.43;;;11.97;;
10985;SDS011;5546;48.714;8.738;2024-03-08T11:58:39;19.17;;;13.07;;
10985;SDS011;5546;48.714;8.738;2024-03-08T12:01:06;15.57;;;12.60;;
10985;SDS011;5546;48.714;8.738;2024-03-08T12:03:34;17.20;;;13.23;;
10985;SDS011;5546;48.714;8.738;2024-03-08T12:06:00;19.23;;;13.67;;
10985;SDS011;5546;48.714;8.738;2024-03-08T12:08:26;16.33;;;12.70;;
10985;SDS011;5546;48.714;8.738;2024-03-08T12:10:53;17.67;;;12.73;;
10985;SDS011;5546;48.714;8.738;2024-03-08T12:13:24;17.97;;;13.60;;
10985;SDS011;5546;48.714;8.738;2024-03-08T12:15:56;17.20;;;12.87;;
10985;SDS011;5546;48.714;8.738;2024-03-08T12:18:23;16.50;;;12.47;;
10985;SDS011;5546;48.714;8.738;2024-03-08T12:21:14;15.80;;;12.23;;
10985;SDS011;5546;48.714;8.738;2024-03-08T12:23:42;16.47;;;12.17;;
10985;SDS011;5546;48.714;8.738;2024-03-08T12:26:12;15.00;;;12.50;;
10985;SDS011;5546;48.714;8.738;2024-03-08T12:28:40;16.47;;;12.00;;
10985;SDS011;5546;48.714;8.738;2024-03-08T12:31:07;15.30;;;11.37;;
10985;SDS011;5546;48.714;8.738;2024-03-08T12:33:36;13.17;;;11.10;;
10985;SDS011;5546;48.714;8.738;2024-03-08T12:36:17;14.33;;;11.50;;
10985;SDS011;5546;48.714;8.738;2024-03-08T12:38:45;14.50;;;11.57;;
10985;SDS011;5546;48.714;8.738;2024-03-08T12:41:17;11.70;;;10.35;;
10985;SDS011;5546;48.714;8.738;2024-03-08T12:43:44;12.75;;;11.07;;
10985;SDS011;5546;48.714;8.738;2024-03-08T12:46:16;12.27;;;10.70;;
10985;SDS011;5546;48.714;8.738;2024-03-08T12:48:43;18.27;;;11.80;;
10985;SDS011;5546;48.714;8.738;2024-03-08T12:51:12;18.13;;;11.95;;
10985;SDS011;5546;48.714;8.738;2024-03-08T12:53:38;16.27;;;12.15;;
10985;SDS011;5546;48.714;8.738;2024-03-08T12:56:05;12.43;;;11.13;;
10985;SDS011;5546;48.714;8.738;2024-03-08T12:58:33;15.07;;;10.90;;
10985;SDS011;5546;48.714;8.738;2024-03-08T13:01:02;13.63;;;11.52;;
10985;SDS011;5546;48.714;8.738;2024-03-08T13:03:30;12.85;;;11.55;;
10985;SDS011;5546;48.714;8.738;2024-03-08T13:05:56;12.02;;;10.73;;
10985;SDS011;5546;48.714;8.738;2024-03-08T13:08:22;12.48;;;11.23;;
10985;SDS011;5546;48.714;8.738;2024-03-08T13:10:49;12.70;;;11.38;;
10985;SDS011;5546;48.714;8.738;2024-03-08T13:13:16;17.90;;;11.27;;
10985;SDS011;5546;48.714;8.738;2024-03-08T13:15:42;11.48;;;10.38;;
10985;SDS011;5546;48.714;8.738;2024-03-08T13:18:08;26.60;;;11.85;;
10985;SDS011;5546;48.714;8.738;2024-03-08T13:20:34;12.55;;;11.25;;
10985;SDS011;5546;48.714;8.738;2024-03-08T13:23:02;12.55;;;11.25;;
10985;SDS011;5546;48.714;8.738;2024-03-08T13:25:29;14.70;;;11.35;;
10985;SDS011;5546;48.714;8.738;2024-03-08T13:27:55;12.20;;;10.80;;
10985;SDS011;5546;48.714;8.738;2024-03-08T13:30:24;11.98;;;10.77;;
10985;SDS011;5546;48.714;8.738;2024-03-08T13:32:51;12.45;;;11.25;;
10985;SDS011;5546;48.714;8.738;2024-03-08T13:35:18;11.35;;;10.15;;
10985;SDS011;5546;48.714;8.738;2024-03-08T13:37:49;11.27;;;10.18;;
10985;SDS011;5546;48.714;8.738;2024-03-08T13:40:16;13.02;;;11.43;;
10985;SDS011;5546;48.714;8.738;2024-03-08T13:42:48;10.88;;;9.80;;
10985;SDS011;5546;48.714;8.738;2024-03-08T13:45:14;13.13;;;11.82;;
10985;SDS011;5546;48.714;8.738;2024-03-08T13:47:43;13.50;;;10.35;;
10985;SDS011;5546;48.714;8.738;2024-03-08T13:50:09;13.13;;;11.77;;
10985;SDS011;5546;48.714;8.738;2024-03-08T13:52:40;13.85;;;10.23;;
10985;SDS011;5546;48.714;8.738;2024-03-08T13:55:06;12.20;;;11.10;;
10985;SDS011;5546;48.714;8.738;2024-03-08T13:57:33;12.77;;;11.32;;
10985;SDS011;5546;48.714;8.738;2024-03-08T13:59:58;13.15;;;11.55;;
10985;SDS011;5546;48.714;8.738;2024-03-08T14:02:24;14.48;;;11.00;;
10985;SDS011;5546;48.714;8.738;2024-03-08T14:04:55;13.80;;;11.35;;
10985;SDS011;5546;48.714;8.738;2024-03-08T14:07:21;11.75;;;10.57;;
10985;SDS011;5546;48.714;8.738;2024-03-08T14:09:48;12.75;;;10.77;;
10985;SDS011;5546;48.714;8.738;2024-03-08T14:12:14;14.48;;;12.52;;
10985;SDS011;5546;48.714;8.738;2024-03-08T14:14:43;14.23;;;12.48;;
10985;SDS011;5546;48.714;8.738;2024-03-08T14:17:09;14.83;;;12.60;;
10985;SDS011;5546;48.714;8.738;2024-03-08T14:19:36;18.37;;;12.67;;
10985;SDS011;5546;48.714;8.738;2024-03-08T14:22:01;20.93;;;13.27;;
10985;SDS011;5546;48.714;8.738;2024-03-08T14:24:29;16.17;;;12.17;;
10985;SDS011;5546;48.714;8.738;2024-03-08T14:26:55;15.33;;;12.40;;
10985;SDS011;5546;48.714;8.738;2024-03-08T14:29:23;14.83;;;12.13;;
10985;SDS011;5546;48.714;8.738;2024-03-08T14:31:52;18.17;;;14.27;;
10985;SDS011;5546;48.714;8.738;2024-03-08T14:34:18;16.67;;;13.10;;
10985;SDS011;5546;48.714;8.738;2024-03-08T14:36:45;17.10;;;13.13;;
10985;SDS011;5546;48.714;8.738;2024-03-08T14:39:11;18.33;;;13.03;;
10985;SDS011;5546;48.714;8.738;2024-03-08T14:41:37;17.20;;;12.90;;
10985;SDS011;5546;48.714;8.738;2024-03-08T14:44:02;16.43;;;12.80;;
10985;SDS011;5546;48.714;8.738;2024-03-08T14:46:28;15.47;;;12.40;;